sensor_id;sensor_type;location;lat;lon;timestamp;pressure;altitude;pressure_sealevel;temperature;humidity
59545;BME280;45368;55.002;-1.592;2023-07-31T00:01:00;99521.30;;;14.51;63.62
59545;BME280;45368;55.002;-1.592;2023-07-31T00:03:27;99517.91;;;15.00;63.98
59545;BME280;45368;55.002;-1.592;2023-07-31T00:05:55;99508.09;;;14.92;64.30
59545;BME280;45368;55.002;-1.592;2023-07-31T00:08:22;99502.46;;;14.80;63.72
59545;BME280;45368;55.002;-1.592;2023-07-31T00:10:51;99502.25;;;14.93;63.49
59545;BME280;45368;55.002;-1.592;2023-07-31T00:13:18;99498.62;;;15.24;63.48
59545;BME280;45368;55.002;-1.592;2023-07-31T00:15:46;99503.91;;;15.21;62.54
59545;BME280;45368;55.002;-1.592;2023-07-31T00:18:13;99502.77;;;15.13;62.73
59545;BME280;45368;55.002;-1.592;2023-07-31T00:20:40;99500.70;;;15.06;63.72
59545;BME280;45368;55.002;-1.592;2023-07-31T00:23:08;99496.56;;;15.10;63.67
59545;BME280;45368;55.002;-1.592;2023-07-31T00:25:35;99493.43;;;15.58;62.88
59545;BME280;45368;55.002;-1.592;2023-07-31T00:28:02;99488.15;;;15.41;62.05
59545;BME280;45368;55.002;-1.592;2023-07-31T00:30:30;99484.52;;;15.17;63.13
59545;BME280;45368;55.002;-1.592;2023-07-31T00:32:58;99474.12;;;16.18;60.76
59545;BME280;45368;55.002;-1.592;2023-07-31T00:35:25;99472.40;;;15.91;60.31
59545;BME280;45368;55.002;-1.592;2023-07-31T00:37:53;99472.97;;;15.82;60.43
59545;BME280;45368;55.002;-1.592;2023-07-31T00:40:20;99470.64;;;15.40;61.82
59545;BME280;45368;55.002;-1.592;2023-07-31T00:42:47;99474.94;;;14.90;64.03
59545;BME280;45368;55.002;-1.592;2023-07-31T00:45:13;99465.94;;;14.98;64.49
59545;BME280;45368;55.002;-1.592;2023-07-31T00:47:41;99444.44;;;16.42;60.63
59545;BME280;45368;55.002;-1.592;2023-07-31T00:50:09;99441.65;;;16.50;59.94
59545;BME280;45368;55.002;-1.592;2023-07-31T00:52:37;99455.93;;;14.93;63.72
59545;BME280;45368;55.002;-1.592;2023-07-31T00:55:04;99451.04;;;16.45;61.06
59545;BME280;45368;55.002;-1.592;2023-07-31T00:57:32;99449.24;;;14.85;65.21
59545;BME280;45368;55.002;-1.592;2023-07-31T01:00:00;99449.81;;;14.09;67.24
59545;BME280;45368;55.002;-1.592;2023-07-31T01:02:27;99448.09;;;15.32;63.87
59545;BME280;45368;55.002;-1.592;2023-07-31T01:04:55;99444.69;;;15.81;63.31
59545;BME280;45368;55.002;-1.592;2023-07-31T01:07:35;99448.43;;;15.00;65.10
59545;BME280;45368;55.002;-1.592;2023-07-31T01:10:08;99439.19;;;14.64;65.92
59545;BME280;45368;55.002;-1.592;2023-07-31T01:12:38;99426.39;;;14.66;66.56
59545;BME280;45368;55.002;-1.592;2023-07-31T01:15:08;99418.38;;;15.26;64.83
59545;BME280;45368;55.002;-1.592;2023-07-31T01:17:36;99421.06;;;15.32;64.93
59545;BME280;45368;55.002;-1.592;2023-07-31T01:20:08;99416.29;;;15.71;64.01
59545;BME280;45368;55.002;-1.592;2023-07-31T01:23:00;99412.99;;;15.24;65.05
59545;BME280;45368;55.002;-1.592;2023-07-31T01:25:57;99406.91;;;14.95;65.83
59545;BME280;45368;55.002;-1.592;2023-07-31T01:28:32;99398.28;;;15.84;63.96
59545;BME280;45368;55.002;-1.592;2023-07-31T01:31:00;99395.73;;;15.13;66.37
59545;BME280;45368;55.002;-1.592;2023-07-31T01:33:30;99400.32;;;15.33;66.30
59545;BME280;45368;55.002;-1.592;2023-07-31T01:35:57;99400.72;;;15.14;66.69
59545;BME280;45368;55.002;-1.592;2023-07-31T01:38:25;99403.08;;;14.40;67.42
59545;BME280;45368;55.002;-1.592;2023-07-31T01:40:52;99398.47;;;15.31;65.38
59545;BME280;45368;55.002;-1.592;2023-07-31T01:43:19;99397.82;;;15.27;65.70
59545;BME280;45368;55.002;-1.592;2023-07-31T01:45:47;99398.31;;;14.94;65.92
59545;BME280;45368;55.002;-1.592;2023-07-31T01:48:14;99389.85;;;15.24;65.14
59545;BME280;45368;55.002;-1.592;2023-07-31T01:50:42;99377.71;;;16.53;62.41
59545;BME280;45368;55.002;-1.592;2023-07-31T01:53:09;99379.20;;;15.37;65.13
59545;BME280;45368;55.002;-1.592;2023-07-31T01:55:36;99370.65;;;16.47;62.79
59545;BME280;45368;55.002;-1.592;2023-07-31T01:58:03;99366.09;;;16.21;62.82
59545;BME280;45368;55.002;-1.592;2023-07-31T02:00:30;99357.23;;;16.97;61.78
59545;BME280;45368;55.002;-1.592;2023-07-31T02:02:58;99360.42;;;15.64;64.34
59545;BME280;45368;55.002;-1.592;2023-07-31T02:05:26;99357.79;;;15.76;64.19
59545;BME280;45368;55.002;-1.592;2023-07-31T02:07:53;99348.29;;;16.19;62.96
59545;BME280;45368;55.002;-1.592;2023-07-31T02:10:21;99340.62;;;16.88;61.14
59545;BME280;45368;55.002;-1.592;2023-07-31T02:12:48;99344.42;;;16.54;62.25
59545;BME280;45368;55.002;-1.592;2023-07-31T02:15:15;99335.70;;;16.13;62.42
59545;BME280;45368;55.002;-1.592;2023-07-31T02:17:43;99326.19;;;16.56;62.79
59545;BME280;45368;55.002;-1.592;2023-07-31T02:20:11;99318.89;;;16.40;62.16
59545;BME280;45368;55.002;-1.592;2023-07-31T02:22:38;99318.33;;;15.79;63.48
59545;BME280;45368;55.002;-1.592;2023-07-31T02:25:05;99323.34;;;15.63;64.06
59545;BME280;45368;55.002;-1.592;2023-07-31T02:27:32;99326.22;;;16.42;62.58
59545;BME280;45368;55.002;-1.592;2023-07-31T02:30:00;99332.60;;;15.36;64.27
59545;BME280;45368;55.002;-1.592;2023-07-31T02:32:27;99336.10;;;15.63;64.26
59545;BME280;45368;55.002;-1.592;2023-07-31T02:34:55;99332.90;;;16.09;63.47
59545;BME280;45368;55.002;-1.592;2023-07-31T02:37:23;99325.35;;;15.89;62.80
59545;BME280;45368;55.002;-1.592;2023-07-31T02:39:51;99312.05;;;17.50;59.98
59545;BME280;45368;55.002;-1.592;2023-07-31T02:42:18;99308.95;;;17.38;59.67
59545;BME280;45368;55.002;-1.592;2023-07-31T02:44:45;99307.79;;;16.83;61.18
59545;BME280;45368;55.002;-1.592;2023-07-31T02:47:12;99299.97;;;17.21;60.10
59545;BME280;45368;55.002;-1.592;2023-07-31T02:49:39;99301.11;;;17.44;59.56
59545;BME280;45368;55.002;-1.592;2023-07-31T02:52:07;99303.92;;;16.89;60.34
59545;BME280;45368;55.002;-1.592;2023-07-31T02:54:34;99308.33;;;16.62;61.86
59545;BME280;45368;55.002;-1.592;2023-07-31T02:57:02;99310.48;;;15.45;64.23
59545;BME280;45368;55.002;-1.592;2023-07-31T02:59:30;99305.46;;;16.45;62.93
59545;BME280;45368;55.002;-1.592;2023-07-31T03:01:57;99304.67;;;16.15;63.24
59545;BME280;45368;55.002;-1.592;2023-07-31T03:04:25;99300.09;;;16.49;61.93
59545;BME280;45368;55.002;-1.592;2023-07-31T03:06:51;99296.95;;;16.38;62.69
59545;BME280;45368;55.002;-1.592;2023-07-31T03:09:18;99292.19;;;16.32;63.22
59545;BME280;45368;55.002;-1.592;2023-07-31T03:11:46;99288.00;;;16.21;63.92
59545;BME280;45368;55.002;-1.592;2023-07-31T03:14:14;99286.66;;;15.64;64.44
59545;BME280;45368;55.002;-1.592;2023-07-31T03:16:41;99281.06;;;15.17;65.84
59545;BME280;45368;55.002;-1.592;2023-07-31T03:19:09;99276.92;;;14.78;67.49
59545;BME280;45368;55.002;-1.592;2023-07-31T03:21:37;99274.83;;;15.79;66.05
59545;BME280;45368;55.002;-1.592;2023-07-31T03:24:04;99270.74;;;15.65;65.90
59545;BME280;45368;55.002;-1.592;2023-07-31T03:26:31;99269.83;;;15.80;65.64
59545;BME280;45368;55.002;-1.592;2023-07-31T03:28:59;99273.36;;;15.98;64.67
59545;BME280;45368;55.002;-1.592;2023-07-31T03:31:26;99268.41;;;15.93;65.66
59545;BME280;45368;55.002;-1.592;2023-07-31T03:33:54;99266.85;;;16.16;64.78
59545;BME280;45368;55.002;-1.592;2023-07-31T03:36:22;99266.70;;;15.77;65.77
59545;BME280;45368;55.002;-1.592;2023-07-31T03:38:51;99267.15;;;16.10;64.80
59545;BME280;45368;55.002;-1.592;2023-07-31T03:41:19;99271.95;;;16.25;64.27
59545;BME280;45368;55.002;-1.592;2023-07-31T03:43:51;99272.70;;;17.08;62.19
59545;BME280;45368;55.002;-1.592;2023-07-31T03:46:19;99272.65;;;16.11;64.02
59545;BME280;45368;55.002;-1.592;2023-07-31T03:48:47;99275.33;;;15.63;64.81
59545;BME280;45368;55.002;-1.592;2023-07-31T03:51:14;99275.78;;;15.50;65.40
59545;BME280;45368;55.002;-1.592;2023-07-31T03:53:41;99275.05;;;15.92;64.88
59545;BME280;45368;55.002;-1.592;2023-07-31T03:56:08;99268.95;;;15.92;64.61
59545;BME280;45368;55.002;-1.592;2023-07-31T03:58:36;99263.17;;;15.98;64.34
59545;BME280;45368;55.002;-1.592;2023-07-31T04:01:04;99260.72;;;17.08;62.62
59545;BME280;45368;55.002;-1.592;2023-07-31T04:03:31;99259.25;;;16.95;62.04
59545;BME280;45368;55.002;-1.592;2023-07-31T04:05:58;99256.39;;;17.29;60.91
59545;BME280;45368;55.002;-1.592;2023-07-31T04:08:25;99256.19;;;17.78;60.39
59545;BME280;45368;55.002;-1.592;2023-07-31T04:10:52;99255.22;;;16.51;62.41
59545;BME280;45368;55.002;-1.592;2023-07-31T04:13:21;99251.70;;;17.45;61.15
59545;BME280;45368;55.002;-1.592;2023-07-31T04:15:49;99249.75;;;17.61;60.17
59545;BME280;45368;55.002;-1.592;2023-07-31T04:18:16;99251.11;;;17.83;59.60
59545;BME280;45368;55.002;-1.592;2023-07-31T04:20:43;99251.67;;;17.58;59.95
59545;BME280;45368;55.002;-1.592;2023-07-31T04:23:11;99258.29;;;16.78;61.16
59545;BME280;45368;55.002;-1.592;2023-07-31T04:25:39;99257.82;;;16.72;61.33
59545;BME280;45368;55.002;-1.592;2023-07-31T04:28:06;99260.20;;;17.30;60.04
59545;BME280;45368;55.002;-1.592;2023-07-31T04:30:33;99262.11;;;17.60;59.84
59545;BME280;45368;55.002;-1.592;2023-07-31T04:33:00;99254.88;;;17.73;59.25
59545;BME280;45368;55.002;-1.592;2023-07-31T04:35:59;99249.32;;;17.70;59.09
59545;BME280;45368;55.002;-1.592;2023-07-31T04:39:09;99246.74;;;17.37;59.70
59545;BME280;45368;55.002;-1.592;2023-07-31T04:42:28;99247.76;;;17.39;59.83
59545;BME280;45368;55.002;-1.592;2023-07-31T04:44:55;99240.24;;;17.05;59.83
59545;BME280;45368;55.002;-1.592;2023-07-31T04:47:23;99237.51;;;17.46;59.05
59545;BME280;45368;55.002;-1.592;2023-07-31T04:49:50;99231.63;;;17.86;58.35
59545;BME280;45368;55.002;-1.592;2023-07-31T04:52:18;99230.21;;;17.73;58.54
59545;BME280;45368;55.002;-1.592;2023-07-31T04:54:46;99226.88;;;18.33;58.03
59545;BME280;45368;55.002;-1.592;2023-07-31T04:57:14;99221.52;;;18.05;58.62
59545;BME280;45368;55.002;-1.592;2023-07-31T04:59:41;99223.29;;;17.77;58.78
59545;BME280;45368;55.002;-1.592;2023-07-31T05:02:11;99222.48;;;16.99;60.19
59545;BME280;45368;55.002;-1.592;2023-07-31T05:04:39;99216.95;;;18.15;59.25
59545;BME280;45368;55.002;-1.592;2023-07-31T05:07:07;99222.53;;;16.87;61.11
59545;BME280;45368;55.002;-1.592;2023-07-31T05:09:34;99224.03;;;17.21;60.43
59545;BME280;45368;55.002;-1.592;2023-07-31T05:12:03;99222.64;;;16.43;62.56
59545;BME280;45368;55.002;-1.592;2023-07-31T05:14:30;99221.08;;;16.85;62.33
59545;BME280;45368;55.002;-1.592;2023-07-31T05:16:57;99216.00;;;17.22;60.81
59545;BME280;45368;55.002;-1.592;2023-07-31T05:19:25;99217.04;;;17.30;61.01
59545;BME280;45368;55.002;-1.592;2023-07-31T05:21:52;99216.82;;;16.75;61.68
59545;BME280;45368;55.002;-1.592;2023-07-31T05:24:19;99217.71;;;17.14;61.04
59545;BME280;45368;55.002;-1.592;2023-07-31T05:26:45;99209.91;;;17.50;60.20
59545;BME280;45368;55.002;-1.592;2023-07-31T05:29:12;99207.26;;;17.39;60.51
59545;BME280;45368;55.002;-1.592;2023-07-31T05:31:40;99208.03;;;17.23;61.55
59545;BME280;45368;55.002;-1.592;2023-07-31T05:34:07;99209.56;;;15.90;63.79
59545;BME280;45368;55.002;-1.592;2023-07-31T05:36:33;99207.02;;;17.13;62.84
59545;BME280;45368;55.002;-1.592;2023-07-31T05:39:00;99205.65;;;16.86;62.96
59545;BME280;45368;55.002;-1.592;2023-07-31T05:41:28;99203.54;;;16.56;64.32
59545;BME280;45368;55.002;-1.592;2023-07-31T05:43:56;99203.63;;;16.47;63.36
59545;BME280;45368;55.002;-1.592;2023-07-31T05:46:23;99200.57;;;15.85;66.07
59545;BME280;45368;55.002;-1.592;2023-07-31T05:48:51;99197.35;;;16.49;64.81
59545;BME280;45368;55.002;-1.592;2023-07-31T05:51:19;99195.79;;;15.97;65.10
59545;BME280;45368;55.002;-1.592;2023-07-31T05:53:45;99196.18;;;16.69;64.68
59545;BME280;45368;55.002;-1.592;2023-07-31T05:56:13;99201.82;;;16.05;66.12
59545;BME280;45368;55.002;-1.592;2023-07-31T05:58:41;99200.05;;;16.65;64.33
59545;BME280;45368;55.002;-1.592;2023-07-31T06:01:08;99201.25;;;16.83;63.49
59545;BME280;45368;55.002;-1.592;2023-07-31T06:03:36;99200.72;;;16.94;63.17
59545;BME280;45368;55.002;-1.592;2023-07-31T06:06:03;99189.57;;;17.27;62.07
59545;BME280;45368;55.002;-1.592;2023-07-31T06:08:30;99188.80;;;16.67;63.41
59545;BME280;45368;55.002;-1.592;2023-07-31T06:10:58;99189.54;;;16.64;64.30
59545;BME280;45368;55.002;-1.592;2023-07-31T06:13:26;99184.64;;;17.47;62.76
59545;BME280;45368;55.002;-1.592;2023-07-31T06:15:53;99186.02;;;17.98;61.14
59545;BME280;45368;55.002;-1.592;2023-07-31T06:18:20;99189.09;;;16.94;63.44
59545;BME280;45368;55.002;-1.592;2023-07-31T06:20:48;99184.34;;;17.04;62.80
59545;BME280;45368;55.002;-1.592;2023-07-31T06:23:15;99186.72;;;16.53;64.13
59545;BME280;45368;55.002;-1.592;2023-07-31T06:25:42;99181.05;;;16.53;64.34
59545;BME280;45368;55.002;-1.592;2023-07-31T06:28:09;99175.77;;;16.58;64.58
59545;BME280;45368;55.002;-1.592;2023-07-31T06:30:37;99172.13;;;17.44;62.69
59545;BME280;45368;55.002;-1.592;2023-07-31T06:33:04;99166.28;;;16.93;63.90
59545;BME280;45368;55.002;-1.592;2023-07-31T06:35:30;99159.58;;;17.01;63.77
59545;BME280;45368;55.002;-1.592;2023-07-31T06:37:57;99149.08;;;17.42;62.81
59545;BME280;45368;55.002;-1.592;2023-07-31T06:40:24;99140.59;;;17.30;62.86
59545;BME280;45368;55.002;-1.592;2023-07-31T06:42:52;99135.50;;;17.27;63.22
59545;BME280;45368;55.002;-1.592;2023-07-31T06:45:20;99131.95;;;18.36;61.08
59545;BME280;45368;55.002;-1.592;2023-07-31T06:47:48;99138.39;;;17.88;61.68
59545;BME280;45368;55.002;-1.592;2023-07-31T06:50:17;99142.24;;;17.68;62.69
59545;BME280;45368;55.002;-1.592;2023-07-31T06:52:44;99142.89;;;17.26;63.97
59545;BME280;45368;55.002;-1.592;2023-07-31T06:55:20;99141.23;;;17.68;63.22
59545;BME280;45368;55.002;-1.592;2023-07-31T06:57:49;99142.88;;;17.21;64.30
59545;BME280;45368;55.002;-1.592;2023-07-31T07:00:18;99139.23;;;16.80;65.08
59545;BME280;45368;55.002;-1.592;2023-07-31T07:02:46;99136.86;;;17.35;64.05
59545;BME280;45368;55.002;-1.592;2023-07-31T07:05:13;99135.59;;;17.24;64.08
59545;BME280;45368;55.002;-1.592;2023-07-31T07:07:41;99130.04;;;16.98;65.19
59545;BME280;45368;55.002;-1.592;2023-07-31T07:10:10;99123.97;;;17.70;64.05
59545;BME280;45368;55.002;-1.592;2023-07-31T07:12:38;99120.58;;;17.69;63.38
59545;BME280;45368;55.002;-1.592;2023-07-31T07:15:06;99118.16;;;17.91;63.59
59545;BME280;45368;55.002;-1.592;2023-07-31T07:17:34;99118.06;;;18.11;62.31
59545;BME280;45368;55.002;-1.592;2023-07-31T07:20:02;99119.62;;;18.74;61.12
59545;BME280;45368;55.002;-1.592;2023-07-31T07:22:29;99116.05;;;18.91;61.17
59545;BME280;45368;55.002;-1.592;2023-07-31T07:24:57;99112.23;;;19.41;60.45
59545;BME280;45368;55.002;-1.592;2023-07-31T07:27:24;99112.14;;;18.59;61.81
59545;BME280;45368;55.002;-1.592;2023-07-31T07:29:51;99108.54;;;19.00;61.85
59545;BME280;45368;55.002;-1.592;2023-07-31T07:32:20;99110.44;;;18.50;62.25
59545;BME280;45368;55.002;-1.592;2023-07-31T07:34:48;99107.49;;;19.29;61.84
59545;BME280;45368;55.002;-1.592;2023-07-31T07:37:15;99102.92;;;19.03;61.46
59545;BME280;45368;55.002;-1.592;2023-07-31T07:39:42;99103.00;;;19.00;60.40
59545;BME280;45368;55.002;-1.592;2023-07-31T07:42:10;99105.27;;;19.33;60.06
59545;BME280;45368;55.002;-1.592;2023-07-31T07:44:37;99112.41;;;19.22;59.47
59545;BME280;45368;55.002;-1.592;2023-07-31T07:47:06;99117.63;;;19.69;59.56
59545;BME280;45368;55.002;-1.592;2023-07-31T07:49:33;99116.37;;;18.78;60.35
59545;BME280;45368;55.002;-1.592;2023-07-31T07:52:00;99115.03;;;18.54;61.83
59545;BME280;45368;55.002;-1.592;2023-07-31T07:54:28;99111.83;;;19.06;61.36
59545;BME280;45368;55.002;-1.592;2023-07-31T07:56:55;99112.32;;;18.64;62.08
59545;BME280;45368;55.002;-1.592;2023-07-31T07:59:22;99109.00;;;18.87;61.71
59545;BME280;45368;55.002;-1.592;2023-07-31T08:01:49;99110.74;;;18.68;62.12
59545;BME280;45368;55.002;-1.592;2023-07-31T08:04:18;99101.58;;;19.31;60.02
59545;BME280;45368;55.002;-1.592;2023-07-31T08:06:49;99098.97;;;18.87;61.05
59545;BME280;45368;55.002;-1.592;2023-07-31T08:09:16;99100.80;;;18.29;62.78
59545;BME280;45368;55.002;-1.592;2023-07-31T08:11:43;99100.70;;;17.76;63.55
59545;BME280;45368;55.002;-1.592;2023-07-31T08:14:11;99093.39;;;18.55;62.16
59545;BME280;45368;55.002;-1.592;2023-07-31T08:16:39;99095.24;;;18.40;61.58
59545;BME280;45368;55.002;-1.592;2023-07-31T08:19:06;99096.09;;;18.58;62.23
59545;BME280;45368;55.002;-1.592;2023-07-31T08:21:34;99105.81;;;17.61;64.16
59545;BME280;45368;55.002;-1.592;2023-07-31T08:24:02;99101.37;;;18.35;62.60
59545;BME280;45368;55.002;-1.592;2023-07-31T08:26:29;99099.77;;;18.30;62.39
59545;BME280;45368;55.002;-1.592;2023-07-31T08:28:57;99097.82;;;18.65;61.51
59545;BME280;45368;55.002;-1.592;2023-07-31T08:31:25;99096.54;;;18.46;62.05
59545;BME280;45368;55.002;-1.592;2023-07-31T08:33:52;99103.00;;;18.35;61.98
59545;BME280;45368;55.002;-1.592;2023-07-31T08:36:20;99096.59;;;19.21;60.25
59545;BME280;45368;55.002;-1.592;2023-07-31T08:38:48;99095.90;;;19.11;60.37
59545;BME280;45368;55.002;-1.592;2023-07-31T08:41:15;99090.95;;;19.14;60.44
59545;BME280;45368;55.002;-1.592;2023-07-31T08:43:44;99089.28;;;19.36;60.19
59545;BME280;45368;55.002;-1.592;2023-07-31T08:46:13;99090.81;;;20.04;58.73
59545;BME280;45368;55.002;-1.592;2023-07-31T08:48:41;99086.64;;;20.05;59.26
59545;BME280;45368;55.002;-1.592;2023-07-31T08:51:09;99084.52;;;20.47;58.40
59545;BME280;45368;55.002;-1.592;2023-07-31T08:53:36;99082.03;;;20.57;57.76
59545;BME280;45368;55.002;-1.592;2023-07-31T08:56:06;99075.20;;;20.24;57.80
59545;BME280;45368;55.002;-1.592;2023-07-31T08:58:34;99070.75;;;19.69;59.66
59545;BME280;45368;55.002;-1.592;2023-07-31T09:01:04;99065.71;;;20.57;58.08
59545;BME280;45368;55.002;-1.592;2023-07-31T09:03:34;99064.70;;;20.13;58.76
59545;BME280;45368;55.002;-1.592;2023-07-31T09:06:02;99064.82;;;20.70;57.43
59545;BME280;45368;55.002;-1.592;2023-07-31T09:08:31;99059.66;;;20.43;57.01
59545;BME280;45368;55.002;-1.592;2023-07-31T09:11:00;99059.36;;;20.84;57.34
59545;BME280;45368;55.002;-1.592;2023-07-31T09:13:29;99056.61;;;20.45;57.35
59545;BME280;45368;55.002;-1.592;2023-07-31T09:15:57;99055.76;;;20.27;58.08
59545;BME280;45368;55.002;-1.592;2023-07-31T09:18:25;99057.07;;;20.33;58.08
59545;BME280;45368;55.002;-1.592;2023-07-31T09:21:08;99060.54;;;20.65;57.42
59545;BME280;45368;55.002;-1.592;2023-07-31T09:23:42;99059.08;;;20.01;58.35
59545;BME280;45368;55.002;-1.592;2023-07-31T09:26:10;99063.26;;;20.44;57.74
59545;BME280;45368;55.002;-1.592;2023-07-31T09:28:38;99063.45;;;19.97;59.40
59545;BME280;45368;55.002;-1.592;2023-07-31T09:31:04;99066.16;;;20.02;58.95
59545;BME280;45368;55.002;-1.592;2023-07-31T09:33:33;99065.18;;;19.53;59.92
59545;BME280;45368;55.002;-1.592;2023-07-31T09:36:00;99063.69;;;19.27;60.75
59545;BME280;45368;55.002;-1.592;2023-07-31T09:38:28;99061.16;;;19.26;60.63
59545;BME280;45368;55.002;-1.592;2023-07-31T09:40:55;99059.68;;;19.09;61.10
59545;BME280;45368;55.002;-1.592;2023-07-31T09:43:25;99052.39;;;20.00;59.01
59545;BME280;45368;55.002;-1.592;2023-07-31T09:45:56;99043.21;;;20.45;58.23
59545;BME280;45368;55.002;-1.592;2023-07-31T09:48:24;99037.53;;;20.15;58.87
59545;BME280;45368;55.002;-1.592;2023-07-31T09:50:52;99032.93;;;19.71;60.99
59545;BME280;45368;55.002;-1.592;2023-07-31T09:53:18;99029.01;;;19.90;60.07
59545;BME280;45368;55.002;-1.592;2023-07-31T09:55:46;99024.04;;;19.87;59.30
59545;BME280;45368;55.002;-1.592;2023-07-31T09:58:14;99028.46;;;20.83;58.29
59545;BME280;45368;55.002;-1.592;2023-07-31T10:00:41;99025.60;;;19.81;59.40
59545;BME280;45368;55.002;-1.592;2023-07-31T10:03:10;99023.72;;;20.09;58.58
59545;BME280;45368;55.002;-1.592;2023-07-31T10:05:39;99021.27;;;19.83;58.89
59545;BME280;45368;55.002;-1.592;2023-07-31T10:08:09;99019.07;;;20.60;56.64
59545;BME280;45368;55.002;-1.592;2023-07-31T10:10:38;99014.86;;;21.38;55.70
59545;BME280;45368;55.002;-1.592;2023-07-31T10:13:08;99012.35;;;21.05;54.72
59545;BME280;45368;55.002;-1.592;2023-07-31T10:15:36;99011.93;;;19.61;57.90
59545;BME280;45368;55.002;-1.592;2023-07-31T10:18:06;99009.11;;;20.53;56.16
59545;BME280;45368;55.002;-1.592;2023-07-31T10:20:34;99001.64;;;19.28;59.26
59545;BME280;45368;55.002;-1.592;2023-07-31T10:23:03;98995.34;;;19.74;58.37
59545;BME280;45368;55.002;-1.592;2023-07-31T10:25:32;98991.70;;;20.46;56.80
59545;BME280;45368;55.002;-1.592;2023-07-31T10:28:00;98985.73;;;20.53;56.83
59545;BME280;45368;55.002;-1.592;2023-07-31T10:30:30;98990.94;;;20.85;56.38
59545;BME280;45368;55.002;-1.592;2023-07-31T10:33:00;98997.57;;;20.38;57.21
59545;BME280;45368;55.002;-1.592;2023-07-31T10:35:28;98997.43;;;20.03;57.33
59545;BME280;45368;55.002;-1.592;2023-07-31T10:37:56;99002.70;;;19.52;58.92
59545;BME280;45368;55.002;-1.592;2023-07-31T10:40:35;99003.52;;;19.35;58.68
59545;BME280;45368;55.002;-1.592;2023-07-31T10:43:04;99003.31;;;20.58;56.53
59545;BME280;45368;55.002;-1.592;2023-07-31T10:45:33;99005.43;;;20.68;56.69
59545;BME280;45368;55.002;-1.592;2023-07-31T10:48:02;99011.38;;;20.04;57.55
59545;BME280;45368;55.002;-1.592;2023-07-31T10:50:32;99014.53;;;19.79;57.71
59545;BME280;45368;55.002;-1.592;2023-07-31T10:53:00;99017.59;;;20.27;56.57
59545;BME280;45368;55.002;-1.592;2023-07-31T10:55:29;99018.74;;;19.12;58.42
59545;BME280;45368;55.002;-1.592;2023-07-31T10:58:04;99015.75;;;18.58;59.89
59545;BME280;45368;55.002;-1.592;2023-07-31T11:00:32;99017.93;;;18.34;60.43
59545;BME280;45368;55.002;-1.592;2023-07-31T11:03:02;99018.78;;;18.66;60.14
59545;BME280;45368;55.002;-1.592;2023-07-31T11:05:48;99022.42;;;18.15;60.53
59545;BME280;45368;55.002;-1.592;2023-07-31T11:08:17;99025.76;;;18.69;60.89
59545;BME280;45368;55.002;-1.592;2023-07-31T11:10:46;99020.19;;;17.34;62.52
59545;BME280;45368;55.002;-1.592;2023-07-31T11:13:14;99027.39;;;17.94;61.86
59545;BME280;45368;55.002;-1.592;2023-07-31T11:15:41;99026.68;;;18.41;61.15
59545;BME280;45368;55.002;-1.592;2023-07-31T11:18:09;99021.54;;;18.39;60.66
59545;BME280;45368;55.002;-1.592;2023-07-31T11:20:37;99012.85;;;18.25;59.93
59545;BME280;45368;55.002;-1.592;2023-07-31T11:23:08;99005.06;;;18.87;59.30
59545;BME280;45368;55.002;-1.592;2023-07-31T11:25:36;99004.63;;;18.46;60.37
59545;BME280;45368;55.002;-1.592;2023-07-31T11:28:05;99000.99;;;19.05;58.19
59545;BME280;45368;55.002;-1.592;2023-07-31T11:30:33;99000.44;;;18.57;60.65
59545;BME280;45368;55.002;-1.592;2023-07-31T11:33:02;98997.34;;;18.08;60.67
59545;BME280;45368;55.002;-1.592;2023-07-31T11:35:31;98993.64;;;19.49;57.76
59545;BME280;45368;55.002;-1.592;2023-07-31T11:37:58;98987.29;;;19.98;56.30
59545;BME280;45368;55.002;-1.592;2023-07-31T11:40:26;98990.46;;;20.30;55.78
59545;BME280;45368;55.002;-1.592;2023-07-31T11:42:54;98991.95;;;19.46;57.01
59545;BME280;45368;55.002;-1.592;2023-07-31T11:45:25;98991.36;;;19.53;56.58
59545;BME280;45368;55.002;-1.592;2023-07-31T11:47:54;98994.33;;;19.76;56.70
59545;BME280;45368;55.002;-1.592;2023-07-31T11:50:22;98999.45;;;19.60;57.50
59545;BME280;45368;55.002;-1.592;2023-07-31T11:52:53;98995.76;;;19.28;58.49
59545;BME280;45368;55.002;-1.592;2023-07-31T11:55:21;98993.04;;;19.14;58.65
59545;BME280;45368;55.002;-1.592;2023-07-31T11:57:49;98991.80;;;20.37;57.13
59545;BME280;45368;55.002;-1.592;2023-07-31T12:00:18;98993.30;;;20.22;56.88
59545;BME280;45368;55.002;-1.592;2023-07-31T12:02:45;98995.19;;;20.16;56.04
59545;BME280;45368;55.002;-1.592;2023-07-31T12:05:13;98999.42;;;20.16;56.25
59545;BME280;45368;55.002;-1.592;2023-07-31T12:07:47;99005.94;;;19.90;57.50
59545;BME280;45368;55.002;-1.592;2023-07-31T12:10:27;99007.37;;;18.15;60.92
59545;BME280;45368;55.002;-1.592;2023-07-31T12:12:58;99000.50;;;19.65;57.54
59545;BME280;45368;55.002;-1.592;2023-07-31T12:15:32;99003.90;;;19.22;59.53
59545;BME280;45368;55.002;-1.592;2023-07-31T12:17:59;99007.72;;;18.45;60.82
59545;BME280;45368;55.002;-1.592;2023-07-31T12:20:26;99008.27;;;19.23;59.03
59545;BME280;45368;55.002;-1.592;2023-07-31T12:22:59;99012.63;;;19.41;59.83
59545;BME280;45368;55.002;-1.592;2023-07-31T12:25:30;99025.19;;;20.38;57.15
59545;BME280;45368;55.002;-1.592;2023-07-31T12:27:58;99022.50;;;19.54;58.54
59545;BME280;45368;55.002;-1.592;2023-07-31T12:30:33;99019.65;;;19.25;58.80
59545;BME280;45368;55.002;-1.592;2023-07-31T12:33:04;99024.15;;;18.88;60.43
59545;BME280;45368;55.002;-1.592;2023-07-31T12:35:37;99023.26;;;17.59;64.18
59545;BME280;45368;55.002;-1.592;2023-07-31T12:38:04;99023.70;;;17.79;64.22
59545;BME280;45368;55.002;-1.592;2023-07-31T12:40:32;99013.26;;;17.44;65.19
59545;BME280;45368;55.002;-1.592;2023-07-31T12:43:01;99011.30;;;17.29;66.49
59545;BME280;45368;55.002;-1.592;2023-07-31T12:45:28;99011.97;;;17.31;66.51
59545;BME280;45368;55.002;-1.592;2023-07-31T12:47:56;99015.36;;;17.07;68.13
59545;BME280;45368;55.002;-1.592;2023-07-31T12:50:24;99012.03;;;16.63;69.77
59545;BME280;45368;55.002;-1.592;2023-07-31T12:52:52;99012.42;;;16.55;69.32
59545;BME280;45368;55.002;-1.592;2023-07-31T12:55:20;99009.28;;;16.88;68.85
59545;BME280;45368;55.002;-1.592;2023-07-31T12:57:47;99006.74;;;17.26;67.10